Time;durP1;ratioP1;P1;durP2;ratioP2;P2;SDS_P1;SDS_P2;PMS_P1;PMS_P2;Temp;Humidity;BMP_temperature;BMP_pressure;BME280_temperature;BME280_humidity;BME280_pressure;Samples;Min_cycle;Max_cycle;Signal;HPM_P1;HPM_P2
2022/09/18 00:01:45;;;;;;;;;;;;;;;16.38;40.74;97168.69;4196524;28;5795;-69
2022/09/18 00:03:48;;;;;;;;;;;;;;;16.37;41.05;97177.72;4190488;28;6390;-70
2022/09/18 00:05:51;;;;;;;;;;;;;;;16.35;40.73;97169.94;4184908;28;5751;-71
2022/09/18 00:07:55;;;;;;;;;;;;;;;16.34;41.03;97173.66;4193194;28;5815;-70
2022/09/18 00:09:58;;;;;;;;;;;;;;;16.37;41.00;97175.06;4191399;28;5901;-71
2022/09/18 00:12:01;;;;;;;;;;;;;;;16.35;40.67;97177.13;4186014;28;5814;-71
2022/09/18 00:14:06;;;;;;;;;;;;;;;16.35;40.85;97174.47;4196081;28;5782;-71
2022/09/18 00:16:11;;;;;;;;;;;;;;;16.32;40.86;97172.25;4185603;28;5837;-71
2022/09/18 00:18:14;;;;;;;;;;;;;;;16.28;40.96;97167.34;4195238;28;5730;-71
2022/09/18 00:20:17;;;;;;;;;;;;;;;16.18;40.95;97167.00;4196015;28;5220;-71
2022/09/18 00:22:20;;;;;;;;;;;;;;;16.15;41.03;97158.66;4196577;28;5808;-72
2022/09/18 00:24:24;;;;;;;;;;;;;;;16.17;40.82;97157.38;4186839;28;5781;-71
2022/09/18 00:26:28;;;;;;;;;;;;;;;16.23;40.88;97164.53;4184022;28;5716;-71
2022/09/18 00:28:31;;;;;;;;;;;;;;;16.21;40.76;97157.78;4189461;28;5720;-72
2022/09/18 00:30:34;;;;;;;;;;;;;;;16.17;40.91;97161.91;4190854;28;5854;-71
2022/09/18 00:32:37;;;;;;;;;;;;;;;16.15;40.80;97155.97;4193748;28;6530;-71
2022/09/18 00:34:40;;;;;;;;;;;;;;;16.06;40.90;97150.09;4193914;28;5687;-71
2022/09/18 00:36:43;;;;;;;;;;;;;;;15.98;41.01;97153.88;4191352;28;5703;-71
2022/09/18 00:38:47;;;;;;;;;;;;;;;15.92;41.09;97162.75;4191588;28;5813;-71
2022/09/18 00:40:51;;;;;;;;;;;;;;;15.88;41.12;97158.88;4192595;28;5691;-72
2022/09/18 00:42:54;;;;;;;;;;;;;;;15.85;41.39;97163.81;4190336;28;5866;-71
2022/09/18 00:44:56;;;;;;;;;;;;;;;15.86;41.36;97160.97;4192051;28;5704;-71
2022/09/18 00:47:04;;;;;;;;;;;;;;;15.82;41.09;97153.59;4189974;28;5758;-71
2022/09/18 00:49:13;;;;;;;;;;;;;;;15.80;41.21;97155.66;4191304;28;5833;-71
2022/09/18 00:51:17;;;;;;;;;;;;;;;15.79;41.18;97154.03;4185081;28;5833;-72
2022/09/18 00:53:20;;;;;;;;;;;;;;;15.76;41.15;97149.97;4186359;28;5562;-71
2022/09/18 00:55:29;;;;;;;;;;;;;;;15.73;41.27;97145.03;4195539;28;7688;-71
2022/09/18 00:57:39;;;;;;;;;;;;;;;15.70;41.30;97148.97;4184325;28;5716;-71
2022/09/18 00:59:45;;;;;;;;;;;;;;;15.68;41.60;97148.38;4182371;28;5711;-71
2022/09/18 01:01:47;;;;;;;;;;;;;;;15.70;41.54;97145.47;4184547;28;5843;-72
2022/09/18 01:03:50;;;;;;;;;;;;;;;15.72;41.21;97149.56;4198005;28;5778;-71
2022/09/18 01:06:05;;;;;;;;;;;;;;;15.79;41.40;97154.03;4185906;28;6427;-71
2022/09/18 01:08:25;;;;;;;;;;;;;;;15.82;41.28;97153.59;4190907;28;5691;-71
2022/09/18 01:10:43;;;;;;;;;;;;;;;15.80;41.46;97155.66;4191191;28;5709;-71
2022/09/18 01:12:55;;;;;;;;;;;;;;;15.80;41.27;97155.66;4183676;28;6389;-71
2022/09/18 01:15:05;;;;;;;;;;;;;;;15.81;41.17;97151.97;4190742;28;5922;-71
2022/09/18 01:17:15;;;;;;;;;;;;;;;15.81;41.32;97146.63;4190462;28;5819;-71
2022/09/18 01:19:34;;;;;;;;;;;;;;;15.84;41.10;97144.34;4184291;28;5723;-71
2022/09/18 01:21:44;;;;;;;;;;;;;;;15.86;41.10;97144.97;4185864;28;6755;-71
2022/09/18 01:24:27;;;;;;;;;;;;;;;15.78;41.51;97150.56;4195711;28;5714;-70
2022/09/18 01:26:47;;;;;;;;;;;;;;;15.72;41.64;97143.41;4192487;28;5801;-72
2022/09/18 01:28:58;;;;;;;;;;;;;;;15.72;41.29;97148.75;4186207;28;5739;-72
2022/09/18 01:31:07;;;;;;;;;;;;;;;15.72;41.23;97144.22;4190262;28;5727;-72
2022/09/18 01:33:17;;;;;;;;;;;;;;;15.60;41.74;97143.28;4199230;28;6491;-71
2022/09/18 01:35:26;;;;;;;;;;;;;;;15.61;41.73;97146.78;4193696;28;5824;-72
2022/09/18 01:37:50;;;;;;;;;;;;;;;15.65;41.68;97138.16;4191039;28;5727;-71
2022/09/18 01:39:59;;;;;;;;;;;;;;;15.71;41.49;97145.25;4189663;28;5712;-70
2022/09/18 01:42:04;;;;;;;;;;;;;;;15.72;41.62;97141.56;4189110;28;5731;-71
2022/09/18 01:44:14;;;;;;;;;;;;;;;15.76;41.45;97143.81;4197201;28;5694;-72
2022/09/18 01:46:19;;;;;;;;;;;;;;;15.77;41.33;97135.59;4194137;28;5802;-71
2022/09/18 01:48:26;;;;;;;;;;;;;;;15.73;41.68;97139.72;4188224;28;5710;-71
2022/09/18 01:50:33;;;;;;;;;;;;;;;15.71;41.57;97136.44;4182901;28;5732;-71
2022/09/18 01:52:39;;;;;;;;;;;;;;;15.72;41.49;97141.56;4188291;28;5961;-72
2022/09/18 01:54:47;;;;;;;;;;;;;;;15.73;41.61;97148.53;4182326;28;5728;-72
2022/09/18 01:56:54;;;;;;;;;;;;;;;15.78;41.49;97144.41;4195419;28;5703;-69
2022/09/18 01:59:00;;;;;;;;;;;;;;;15.80;41.75;97139.66;4195201;28;5789;-70
2022/09/18 02:01:11;;;;;;;;;;;;;;;15.79;41.49;97138.84;4187758;28;5807;-70
2022/09/18 02:03:18;;;;;;;;;;;;;;;15.78;41.64;97147.88;4191127;28;5719;-71
2022/09/18 02:05:25;;;;;;;;;;;;;;;15.73;41.47;97145.84;4185256;28;5885;-71
2022/09/18 02:07:31;;;;;;;;;;;;;;;15.73;41.66;97143.19;4189260;28;5790;-70
2022/09/18 02:09:34;;;;;;;;;;;;;;;15.78;41.73;97152.41;4192539;28;5099;-71
2022/09/18 02:11:40;;;;;;;;;;;;;;;15.80;41.57;97148.47;4184988;28;7795;-70
2022/09/18 02:13:49;;;;;;;;;;;;;;;15.83;41.80;97157.88;4187121;28;5713;-71
2022/09/18 02:15:57;;;;;;;;;;;;;;;15.85;41.55;97153.16;4190155;28;5704;-70
2022/09/18 02:18:07;;;;;;;;;;;;;;;15.84;41.68;97156.84;4188886;28;5710;-70
2022/09/18 02:20:13;;;;;;;;;;;;;;;15.86;41.63;97155.63;4192157;28;6620;-71
2022/09/18 02:22:20;;;;;;;;;;;;;;;15.87;41.75;97157.25;4181560;28;5135;-70
2022/09/18 02:24:27;;;;;;;;;;;;;;;15.89;41.81;97154.38;4192587;28;5703;-71
2022/09/18 02:26:32;;;;;;;;;;;;;;;15.88;42.03;97158.06;4187914;28;5840;-70
2022/09/18 02:28:38;;;;;;;;;;;;;;;15.85;41.78;97156.63;4190432;28;5810;-71
2022/09/18 02:30:42;;;;;;;;;;;;;;;15.80;41.93;97161.00;4187985;28;6519;-70
2022/09/18 02:32:45;;;;;;;;;;;;;;;15.80;42.17;97155.66;4195167;28;5714;-71
2022/09/18 02:34:50;;;;;;;;;;;;;;;15.83;42.24;97156.03;4190509;28;5750;-70
2022/09/18 02:37:11;;;;;;;;;;;;;;;15.83;42.23;97160.56;4195914;28;5777;-71
2022/09/18 02:39:27;;;;;;;;;;;;;;;15.85;42.31;97150.47;4182535;28;5909;-71
2022/09/18 02:41:38;;;;;;;;;;;;;;;15.86;42.45;97154.81;4193825;28;5687;-71
2022/09/18 02:43:51;;;;;;;;;;;;;;;15.88;42.36;97158.06;4186152;28;5702;-70
2022/09/18 02:46:02;;;;;;;;;;;;;;;15.90;42.21;97161.34;4197966;28;5703;-71
2022/09/18 02:48:18;;;;;;;;;;;;;;;15.89;42.32;97159.69;4183182;28;5787;-71
2022/09/18 02:50:31;;;;;;;;;;;;;;;15.90;42.66;97156.00;4193337;28;5718;-71
2022/09/18 02:52:41;;;;;;;;;;;;;;;15.91;42.24;97153.09;4192751;28;5835;-71
2022/09/18 02:54:49;;;;;;;;;;;;;;;15.92;42.43;97154.75;4192006;28;5810;-71
2022/09/18 02:56:57;;;;;;;;;;;;;;;15.91;42.63;97150.44;4192187;28;5781;-71
2022/09/18 02:59:05;;;;;;;;;;;;;;;15.92;42.39;97148.59;4185621;28;5708;-71
2022/09/18 03:01:10;;;;;;;;;;;;;;;15.90;42.58;97150.66;4185310;28;5807;-71
2022/09/18 03:03:14;;;;;;;;;;;;;;;15.87;42.59;97148.44;4191313;28;5691;-72
2022/09/18 03:05:17;;;;;;;;;;;;;;;15.87;42.56;97154.59;4188875;28;5885;-70
2022/09/18 03:07:21;;;;;;;;;;;;;;;15.87;42.95;97151.09;4189014;28;5709;-71
2022/09/18 03:09:25;;;;;;;;;;;;;;;15.85;42.88;97159.31;4185428;28;5807;-71
2022/09/18 03:11:27;;;;;;;;;;;;;;;15.83;42.82;97156.03;4184862;28;5809;-71
2022/09/18 03:13:30;;;;;;;;;;;;;;;15.81;42.77;97157.28;4184406;28;5743;-71
2022/09/18 03:15:33;;;;;;;;;;;;;;;15.79;43.07;97152.19;4191575;28;5791;-71
2022/09/18 03:17:36;;;;;;;;;;;;;;;15.78;42.99;97155.06;4192253;28;5742;-71
2022/09/18 03:19:39;;;;;;;;;;;;;;;15.77;42.99;97150.78;4195229;28;5695;-71
2022/09/18 03:21:41;;;;;;;;;;;;;;;15.76;43.20;97154.47;4200575;28;5789;-71
2022/09/18 03:23:45;;;;;;;;;;;;;;;15.73;43.18;97156.53;4202491;28;6023;-71
2022/09/18 03:25:49;;;;;;;;;;;;;;;15.73;43.35;97150.38;4201848;28;7373;-70
2022/09/18 03:27:54;;;;;;;;;;;;;;;15.72;43.06;97154.88;4202255;28;5781;-71
2022/09/18 03:29:57;;;;;;;;;;;;;;;15.69;43.23;97152.66;4202585;28;5755;-71
2022/09/18 03:31:59;;;;;;;;;;;;;;;15.67;43.36;97154.72;4202297;28;5718;-70
2022/09/18 03:34:02;;;;;;;;;;;;;;;15.68;43.17;97158.22;4201968;28;5690;-70
2022/09/18 03:36:06;;;;;;;;;;;;;;;15.66;43.23;97153.09;4202139;28;5772;-71
2022/09/18 03:38:09;;;;;;;;;;;;;;;15.68;43.25;97159.03;4201984;28;5710;-71
2022/09/18 03:40:14;;;;;;;;;;;;;;;15.69;43.02;97154.50;4201921;28;5829;-70
2022/09/18 03:42:17;;;;;;;;;;;;;;;15.70;42.99;97151.63;4202185;28;5742;-71
2022/09/18 03:44:20;;;;;;;;;;;;;;;15.69;43.04;97151.84;4200651;28;6342;-71
2022/09/18 03:46:23;;;;;;;;;;;;;;;15.68;42.99;97158.22;4201975;28;5684;-72
2022/09/18 03:48:26;;;;;;;;;;;;;;;15.66;43.12;97139.78;4202188;28;5694;-75
2022/09/18 03:50:29;;;;;;;;;;;;;;;15.65;43.12;97140.81;4202269;28;5690;-75
2022/09/18 03:52:32;;;;;;;;;;;;;;;15.66;42.96;97137.13;4201589;28;5695;-78
2022/09/18 03:54:34;;;;;;;;;;;;;;;15.69;43.17;97144.66;4202100;28;6356;-72
2022/09/18 03:56:39;;;;;;;;;;;;;;;15.67;43.05;97146.75;4201497;28;5690;-70
2022/09/18 03:58:41;;;;;;;;;;;;;;;15.67;43.22;97146.75;4192288;28;5728;-71
2022/09/18 04:00:45;;;;;;;;;;;;;;;15.65;43.19;97154.13;4192733;28;5715;-70
2022/09/18 04:02:48;;;;;;;;;;;;;;;15.64;43.37;97141.84;4195285;28;5703;-70
2022/09/18 04:04:52;;;;;;;;;;;;;;;15.64;43.17;97152.50;4192064;28;5950;-71
2022/09/18 04:06:55;;;;;;;;;;;;;;;15.66;43.12;97149.63;4199625;28;5106;-71
2022/09/18 04:08:58;;;;;;;;;;;;;;;15.66;43.20;97155.78;4194391;28;5695;-72
2022/09/18 04:11:03;;;;;;;;;;;;;;;15.66;43.15;97154.97;4191520;28;5714;-72
2022/09/18 04:13:07;;;;;;;;;;;;;;;15.63;43.41;97153.53;4184631;28;5739;-71
2022/09/18 04:15:10;;;;;;;;;;;;;;;15.61;43.19;97163.59;4199234;28;5702;-71
2022/09/18 04:17:13;;;;;;;;;;;;;;;15.61;43.21;97162.75;4186636;28;5724;-71
2022/09/18 04:19:15;;;;;;;;;;;;;;;15.59;43.53;97162.13;4184748;28;5716;-71
2022/09/18 04:21:18;;;;;;;;;;;;;;;15.58;43.26;97168.50;4196631;28;5780;-71
2022/09/18 04:23:21;;;;;;;;;;;;;;;15.57;43.59;97166.88;4191002;28;5732;-71
2022/09/18 04:25:24;;;;;;;;;;;;;;;15.55;43.50;97159.09;4189729;28;5765;-71
2022/09/18 04:27:27;;;;;;;;;;;;;;;15.53;43.56;97158.50;4201325;28;5699;-71
2022/09/18 04:29:31;;;;;;;;;;;;;;;15.54;43.53;97165.47;4194195;28;5687;-71
2022/09/18 04:31:34;;;;;;;;;;;;;;;15.53;43.48;97168.34;4192536;28;5799;-71
2022/09/18 04:33:37;;;;;;;;;;;;;;;15.49;43.58;97170.59;4197831;28;6016;-71
2022/09/18 04:35:40;;;;;;;;;;;;;;;15.46;43.91;97168.38;4197449;28;7723;-71
2022/09/18 04:37:44;;;;;;;;;;;;;;;15.44;43.57;97162.44;4186841;28;5699;-71
2022/09/18 04:39:47;;;;;;;;;;;;;;;15.45;43.74;97172.06;4195414;28;5779;-71
2022/09/18 04:41:50;;;;;;;;;;;;;;;15.41;43.79;97168.22;4191450;28;5724;-71
2022/09/18 04:43:53;;;;;;;;;;;;;;;15.38;44.00;97168.63;4185501;28;5719;-71
2022/09/18 04:45:57;;;;;;;;;;;;;;;15.37;44.08;97172.31;4193213;28;5810;-71
2022/09/18 04:48:00;;;;;;;;;;;;;;;15.34;43.83;97172.75;4188221;28;5790;-71
2022/09/18 04:50:03;;;;;;;;;;;;;;;15.35;43.82;97182.38;4186246;28;5700;-71
2022/09/18 04:52:06;;;;;;;;;;;;;;;15.35;43.88;97174.38;4186620;28;5732;-71
2022/09/18 04:54:09;;;;;;;;;;;;;;;15.34;44.09;97170.09;4191510;28;5711;-71
2022/09/18 04:56:12;;;;;;;;;;;;;;;15.35;44.10;97175.19;4195547;28;5720;-71
2022/09/18 04:58:17;;;;;;;;;;;;;;;15.35;43.91;97169.06;4194299;28;5699;-70
2022/09/18 05:00:20;;;;;;;;;;;;;;;15.35;44.24;97169.06;4184483;28;5841;-71
2022/09/18 05:02:24;;;;;;;;;;;;;;;15.33;43.88;97176.44;4184677;28;5799;-71
2022/09/18 05:04:27;;;;;;;;;;;;;;;15.33;43.94;97166.63;4191810;28;5694;-70
2022/09/18 05:06:30;;;;;;;;;;;;;;;15.31;44.28;97167.88;4184121;28;5795;-71
2022/09/18 05:08:33;;;;;;;;;;;;;;;15.30;43.93;97167.03;4183893;28;5716;-71
2022/09/18 05:10:36;;;;;;;;;;;;;;;15.28;44.26;97162.94;4198213;28;5829;-70
2022/09/18 05:12:40;;;;;;;;;;;;;;;15.27;44.16;97169.31;4184809;28;5716;-72
2022/09/18 05:14:42;;;;;;;;;;;;;;;15.27;44.04;97171.97;4183041;28;5716;-72
2022/09/18 05:16:45;;;;;;;;;;;;;;;15.24;44.10;97167.06;4184185;28;5735;-72
2022/09/18 05:18:50;;;;;;;;;;;;;;;15.22;44.18;97166.47;4187166;28;5889;-72
2022/09/18 05:20:53;;;;;;;;;;;;;;;15.21;44.47;97172.84;4194739;28;5801;-72
2022/09/18 05:22:56;;;;;;;;;;;;;;;15.21;44.33;97175.50;4199150;28;5724;-72
2022/09/18 05:24:59;;;;;;;;;;;;;;;15.20;44.63;97169.34;4189131;28;5841;-70
2022/09/18 05:27:02;;;;;;;;;;;;;;;15.21;44.64;97167.50;4192544;28;5694;-71
2022/09/18 05:29:05;;;;;;;;;;;;;;;15.21;44.38;97172.84;4183587;28;5119;-71
2022/09/18 05:31:08;;;;;;;;;;;;;;;15.20;44.41;97177.34;4185936;28;5780;-71
2022/09/18 05:33:11;;;;;;;;;;;;;;;15.21;44.79;97175.50;4199584;28;5702;-72
2022/09/18 05:35:16;;;;;;;;;;;;;;;15.17;44.55;97177.75;4193832;28;5778;-71
2022/09/18 05:37:19;;;;;;;;;;;;;;;15.18;44.80;97175.94;4184369;28;5779;-72
2022/09/18 05:39:22;;;;;;;;;;;;;;;15.20;44.58;97180.00;4186466;28;5691;-72
2022/09/18 05:41:25;;;;;;;;;;;;;;;15.22;44.49;97182.44;4182187;28;5731;-72
2022/09/18 05:43:28;;;;;;;;;;;;;;;15.20;44.83;97179.19;4193352;28;5699;-72
2022/09/18 05:45:32;;;;;;;;;;;;;;;15.19;44.68;97175.72;4184377;28;5740;-70
2022/09/18 05:47:35;;;;;;;;;;;;;;;15.19;44.77;97174.91;4189500;28;5690;-71
2022/09/18 05:49:37;;;;;;;;;;;;;;;15.20;44.67;97179.19;4199819;28;5491;-72
2022/09/18 05:51:43;;;;;;;;;;;;;;;15.21;44.89;97175.50;4199034;28;7789;-72
2022/09/18 05:53:47;;;;;;;;;;;;;;;15.23;44.82;97179.56;4190814;28;6410;-71
2022/09/18 05:55:50;;;;;;;;;;;;;;;15.24;44.87;97183.88;4184513;28;5705;-70
2022/09/18 05:57:53;;;;;;;;;;;;;;;15.25;44.87;97176.69;4183966;28;5814;-70
2022/09/18 05:59:56;;;;;;;;;;;;;;;15.26;44.65;97186.31;4199896;28;5699;-70
2022/09/18 06:01:59;;;;;;;;;;;;;;;15.26;44.60;97181.81;4196101;28;5865;-71
2022/09/18 06:04:02;;;;;;;;;;;;;;;15.29;44.75;97181.41;4196671;28;5824;-71
2022/09/18 06:06:05;;;;;;;;;;;;;;;15.30;44.64;97188.34;4193242;28;5809;-72
2022/09/18 06:08:11;;;;;;;;;;;;;;;15.34;44.63;97188.75;4183156;28;5712;-72
2022/09/18 06:10:15;;;;;;;;;;;;;;;15.35;44.87;97190.38;4184037;28;5893;-71
2022/09/18 06:12:18;;;;;;;;;;;;;;;15.34;44.66;97183.41;4192274;28;5712;-71
2022/09/18 06:14:20;;;;;;;;;;;;;;;15.35;44.68;97180.53;4188773;28;5703;-71
2022/09/18 06:16:23;;;;;;;;;;;;;;;15.37;44.63;97188.31;4184550;28;5909;-72
2022/09/18 06:18:26;;;;;;;;;;;;;;;15.41;44.56;97189.53;4198784;28;6389;-72
2022/09/18 06:20:29;;;;;;;;;;;;;;;15.42;44.60;97186.66;4199989;28;5767;-68
2022/09/18 06:22:32;;;;;;;;;;;;;;;15.42;44.60;97197.31;4197695;28;5973;-72
2022/09/18 06:24:36;;;;;;;;;;;;;;;15.43;44.44;97196.28;4199880;28;5703;-70
2022/09/18 06:26:39;;;;;;;;;;;;;;;15.45;44.47;97193.38;4202263;28;5766;-72
2022/09/18 06:28:42;;;;;;;;;;;;;;;15.47;44.32;97194.00;4203129;28;5819;-67
2022/09/18 06:30:45;;;;;;;;;;;;;;;15.50;44.48;97195.41;4203339;28;5785;-69
2022/09/18 06:32:48;;;;;;;;;;;;;;;15.49;44.70;97191.91;4202808;28;5703;-65
2022/09/18 06:34:51;;;;;;;;;;;;;;;15.47;44.60;97194.00;4203176;28;5695;-68
2022/09/18 06:36:54;;;;;;;;;;;;;;;15.49;44.67;97199.91;4202966;28;5863;-68
2022/09/18 06:38:57;;;;;;;;;;;;;;;15.50;44.54;97204.22;4203447;28;5687;-68
2022/09/18 06:41:01;;;;;;;;;;;;;;;15.51;44.80;97199.69;4202683;28;5770;-68
2022/09/18 06:43:04;;;;;;;;;;;;;;;15.54;44.47;97201.94;4203166;28;5785;-68
2022/09/18 06:45:07;;;;;;;;;;;;;;;15.56;44.70;97199.88;4202933;28;5695;-69
2022/09/18 06:47:10;;;;;;;;;;;;;;;15.56;44.55;97203.38;4203017;28;5750;-69
2022/09/18 06:49:15;;;;;;;;;;;;;;;15.59;44.51;97202.94;4202952;28;5695;-67
2022/09/18 06:51:18;;;;;;;;;;;;;;;15.60;44.47;97199.25;4203069;28;5710;-68
2022/09/18 06:53:21;;;;;;;;;;;;;;;15.63;44.18;97198.84;4202938;28;5711;-67
2022/09/18 06:55:25;;;;;;;;;;;;;;;15.65;44.53;97190.63;4203055;28;6594;-69
2022/09/18 06:57:29;;;;;;;;;;;;;;;15.65;44.63;97203.97;4203123;28;5726;-67
2022/09/18 06:59:32;;;;;;;;;;;;;;;15.65;44.47;97207.44;4202959;28;5710;-67
2022/09/18 07:01:35;;;;;;;;;;;;;;;15.68;44.28;97204.34;4202776;28;5695;-67
2022/09/18 07:03:38;;;;;;;;;;;;;;;15.69;44.32;97197.97;4203032;28;5710;-68
2022/09/18 07:05:44;;;;;;;;;;;;;;;15.72;44.26;97207.38;4202947;28;5695;-68
2022/09/18 07:07:47;;;;;;;;;;;;;;;15.73;44.42;97201.84;4202418;28;5699;-68
2022/09/18 07:09:50;;;;;;;;;;;;;;;15.77;44.27;97201.44;4202741;28;5749;-69
2022/09/18 07:11:53;;;;;;;;;;;;;;;15.80;44.40;97206.31;4201049;28;5695;-68
2022/09/18 07:13:57;;;;;;;;;;;;;;;15.79;44.30;97207.34;4203009;28;5706;-67
2022/09/18 07:16:00;;;;;;;;;;;;;;;15.83;44.23;97209.34;4202477;28;5715;-67
2022/09/18 07:18:05;;;;;;;;;;;;;;;15.86;44.33;97210.81;4202688;28;5753;-70
2022/09/18 07:20:09;;;;;;;;;;;;;;;15.89;44.36;97208.50;4202550;28;5785;-68
2022/09/18 07:22:12;;;;;;;;;;;;;;;15.92;44.41;97215.25;4202254;28;5678;-68
2022/09/18 07:24:15;;;;;;;;;;;;;;;15.95;44.23;97217.47;4196580;28;5793;-69
2022/09/18 07:26:18;;;;;;;;;;;;;;;15.97;44.22;97220.75;4202208;28;5686;-68
2022/09/18 07:28:21;;;;;;;;;;;;;;;15.97;44.37;97226.91;4202404;28;5902;-68
2022/09/18 07:30:25;;;;;;;;;;;;;;;15.95;44.30;97220.13;4202325;28;6504;-68
2022/09/18 07:32:28;;;;;;;;;;;;;;;15.97;44.21;97224.25;4202223;28;5793;-66
2022/09/18 07:34:31;;;;;;;;;;;;;;;16.00;44.32;97215.81;4202257;28;5861;-67
2022/09/18 07:36:33;;;;;;;;;;;;;;;16.04;44.33;97218.84;4202207;28;5793;-67
2022/09/18 07:38:36;;;;;;;;;;;;;;;16.07;44.25;97221.06;4201600;28;5075;-67
2022/09/18 07:40:41;;;;;;;;;;;;;;;16.05;44.27;97211.66;4201955;28;5707;-69
2022/09/18 07:42:44;;;;;;;;;;;;;;;16.08;44.18;97212.03;4201986;28;5876;-67
2022/09/18 07:44:47;;;;;;;;;;;;;;;16.10;44.34;97210.00;4202072;28;5718;-67
2022/09/18 07:46:54;;;;;;;;;;;;;;;16.13;44.29;97214.88;4202159;28;5698;-68
2022/09/18 07:48:57;;;;;;;;;;;;;;;16.15;44.49;97210.13;4201949;28;5682;-68
2022/09/18 07:51:00;;;;;;;;;;;;;;;16.17;44.36;97212.59;4201879;28;5702;-67
2022/09/18 07:53:04;;;;;;;;;;;;;;;16.16;44.25;97210.94;4201711;28;5699;-68
2022/09/18 07:55:07;;;;;;;;;;;;;;;16.12;44.30;97209.75;4201767;28;5702;-68
2022/09/18 07:57:10;;;;;;;;;;;;;;;16.13;44.49;97209.53;4201778;28;5691;-67
2022/09/18 07:59:13;;;;;;;;;;;;;;;16.20;44.46;97210.31;4201958;28;5699;-68
2022/09/18 08:01:16;;;;;;;;;;;;;;;16.23;44.36;97217.88;4201949;28;5710;-69
2022/09/18 08:03:20;;;;;;;;;;;;;;;16.25;44.63;97218.47;4201732;28;5687;-68
2022/09/18 08:05:23;;;;;;;;;;;;;;;16.28;44.64;97220.69;4202090;28;5695;-68
2022/09/18 08:07:26;;;;;;;;;;;;;;;16.33;44.57;97224.56;4200323;28;5687;-68
2022/09/18 08:09:28;;;;;;;;;;;;;;;16.36;44.53;97227.59;4201755;28;5707;-68
2022/09/18 08:11:31;;;;;;;;;;;;;;;16.39;44.57;97226.34;4201126;28;5766;-67
2022/09/18 08:13:34;;;;;;;;;;;;;;;16.41;44.44;97227.75;4201668;28;5785;-67
2022/09/18 08:15:39;;;;;;;;;;;;;;;16.43;44.53;97230.22;4201581;28;5699;-70
2022/09/18 08:17:45;;;;;;;;;;;;;;;16.46;44.59;97225.25;4201952;28;5683;-69
2022/09/18 08:19:49;;;;;;;;;;;;;;;16.51;44.46;97233.41;4201930;28;5698;-70
2022/09/18 08:21:51;;;;;;;;;;;;;;;16.53;44.63;97220.66;4201230;28;5695;-69
2022/09/18 08:23:55;;;;;;;;;;;;;;;16.57;44.58;97213.06;4195570;28;5699;-69
2022/09/18 08:25:59;;;;;;;;;;;;;;;16.56;44.45;97216.75;4201097;28;5678;-70
2022/09/18 08:28:03;;;;;;;;;;;;;;;16.55;44.42;97217.78;4201433;28;5695;-68
2022/09/18 08:30:09;;;;;;;;;;;;;;;16.54;44.36;97216.16;4201413;28;5695;-70
2022/09/18 08:32:12;;;;;;;;;;;;;;;16.55;44.62;97221.28;4201446;28;5712;-71
2022/09/18 08:34:14;;;;;;;;;;;;;;;16.59;44.38;97213.63;4199347;28;5821;-70
2022/09/18 08:36:19;;;;;;;;;;;;;;;16.60;44.40;97218.75;4199923;28;5730;-68
2022/09/18 08:38:21;;;;;;;;;;;;;;;16.62;44.46;97215.84;4198299;28;5766;-71
2022/09/18 08:40:40;;;;;;;;;;;;;;;16.64;44.21;97216.44;4200857;28;5894;-70
2022/09/18 08:42:54;;;;;;;;;;;;;;;16.65;44.48;97214.59;4201558;28;5805;-70
2022/09/18 08:45:00;;;;;;;;;;;;;;;16.66;44.48;97224.25;4201672;28;5744;-69
2022/09/18 08:47:09;;;;;;;;;;;;;;;16.65;44.32;97218.09;4201662;28;5702;-68
2022/09/18 08:49:24;;;;;;;;;;;;;;;16.66;44.52;97224.25;4201305;28;5706;-69
2022/09/18 08:51:33;;;;;;;;;;;;;;;16.69;44.45;97223.84;4200563;28;5695;-69
2022/09/18 08:53:40;;;;;;;;;;;;;;;16.71;44.28;97233.25;4199677;28;5687;-69
2022/09/18 08:55:46;;;;;;;;;;;;;;;16.72;44.52;97234.88;4196241;28;5695;-68
2022/09/18 08:57:53;;;;;;;;;;;;;;;16.77;44.17;97224.38;4189591;28;5707;-69
2022/09/18 09:00:01;;;;;;;;;;;;;;;16.78;44.50;97225.19;4201290;28;5777;-71
2022/09/18 09:02:19;;;;;;;;;;;;;;;16.84;44.26;97227.78;4195290;28;5899;-71
2022/09/18 09:04:27;;;;;;;;;;;;;;;16.89;44.17;97224.44;4184490;28;5915;-71
2022/09/18 09:06:49;;;;;;;;;;;;;;;16.91;44.49;97224.22;4200105;28;5788;-71
2022/09/18 09:09:09;;;;;;;;;;;;;;;16.92;44.21;97213.31;4199917;28;5775;-73
2022/09/18 09:11:29;;;;;;;;;;;;;;;16.95;44.30;97218.22;4191053;28;5702;-71
2022/09/18 09:14:10;;;;;;;;;;;;;;;16.96;44.12;97211.00;4201372;28;5750;-70
2022/09/18 09:16:16;;;;;;;;;;;;;;;16.99;44.05;97213.22;4201279;28;6451;-72
2022/09/18 09:18:25;;;;;;;;;;;;;;;16.98;44.06;97217.75;4201744;28;5705;-70
2022/09/18 09:20:44;;;;;;;;;;;;;;;16.99;44.28;97213.22;4201655;28;5695;-70
2022/09/18 09:22:58;;;;;;;;;;;;;;;17.03;44.30;97220.59;4201361;28;5698;-72
2022/09/18 09:25:14;;;;;;;;;;;;;;;17.06;44.16;97219.31;4201396;28;5742;-74
2022/09/18 09:27:23;;;;;;;;;;;;;;;17.08;44.02;97217.22;4201888;28;5074;-71
2022/09/18 09:29:28;;;;;;;;;;;;;;;17.07;44.14;97220.94;4201481;28;5715;-73
2022/09/18 09:31:36;;;;;;;;;;;;;;;17.09;44.14;97217.00;4201575;28;5719;-71
2022/09/18 09:33:46;;;;;;;;;;;;;;;17.13;44.19;97212.88;4201260;28;5706;-72
2022/09/18 09:35:52;;;;;;;;;;;;;;;17.17;44.19;97214.03;4201542;28;6450;-69
2022/09/18 09:38:01;;;;;;;;;;;;;;;17.20;44.21;97215.44;4201201;28;5690;-73
2022/09/18 09:40:12;;;;;;;;;;;;;;;17.23;44.30;97220.34;4201725;28;5342;-72
2022/09/18 09:42:21;;;;;;;;;;;;;;;17.26;44.20;97214.56;4200945;28;7691;-72
2022/09/18 09:44:31;;;;;;;;;;;;;;;17.28;44.36;97212.47;4190031;28;5810;-70
2022/09/18 09:46:43;;;;;;;;;;;;;;;17.31;44.12;97219.22;4184316;28;5847;-71
2022/09/18 09:48:52;;;;;;;;;;;;;;;17.33;44.23;97217.16;4183078;28;5704;-70
2022/09/18 09:50:59;;;;;;;;;;;;;;;17.37;44.07;97211.13;4184363;28;5727;-70
2022/09/18 09:53:06;;;;;;;;;;;;;;;17.37;44.16;97215.66;4183831;28;5716;-70
2022/09/18 09:55:20;;;;;;;;;;;;;;;17.37;44.19;97219.13;4199625;28;5924;-74
2022/09/18 09:57:28;;;;;;;;;;;;;;;17.38;44.15;97212.75;4185297;28;5896;-72
2022/09/18 09:59:40;;;;;;;;;;;;;;;17.36;44.24;97214.84;4201724;28;5683;-74
2022/09/18 10:01:49;;;;;;;;;;;;;;;17.36;44.28;97211.34;4198300;28;5825;-69
2022/09/18 10:04:05;;;;;;;;;;;;;;;17.40;44.21;97209.84;4198997;28;5702;-71
2022/09/18 10:06:21;;;;;;;;;;;;;;;17.42;44.13;97213.91;4200235;28;5691;-70
2022/09/18 10:08:33;;;;;;;;;;;;;;;17.45;44.07;97218.84;4200226;28;5841;-70
2022/09/18 10:10:40;;;;;;;;;;;;;;;17.48;44.08;97214.06;4200033;28;5680;-71
2022/09/18 10:12:50;;;;;;;;;;;;;;;17.49;43.86;97202.34;4200256;28;5742;-71
2022/09/18 10:14:58;;;;;;;;;;;;;;;17.52;43.96;97204.53;4199965;28;5911;-70
2022/09/18 10:17:04;;;;;;;;;;;;;;;17.53;43.82;97208.84;4200557;28;5695;-70
2022/09/18 10:19:11;;;;;;;;;;;;;;;17.54;43.90;97208.63;4200263;28;5778;-69
2022/09/18 10:21:16;;;;;;;;;;;;;;;17.57;43.92;97202.84;4188200;28;5942;-70
2022/09/18 10:23:28;;;;;;;;;;;;;;;17.57;43.89;97204.69;4183924;28;5760;-70
2022/09/18 10:25:42;;;;;;;;;;;;;;;17.58;44.03;97206.31;4182995;28;5858;-70
2022/09/18 10:27:44;;;;;;;;;;;;;;;17.59;43.78;97210.63;4192504;28;5821;-71
2022/09/18 10:29:47;;;;;;;;;;;;;;;17.60;43.89;97204.22;4200310;28;5777;-70
2022/09/18 10:31:52;;;;;;;;;;;;;;;17.60;43.94;97196.22;4200247;28;5683;-69
2022/09/18 10:33:55;;;;;;;;;;;;;;;17.59;43.96;97203.41;4200551;28;5706;-70
2022/09/18 10:36:02;;;;;;;;;;;;;;;17.60;43.89;97196.22;4199772;28;5695;-69
2022/09/18 10:38:29;;;;;;;;;;;;;;;17.65;43.85;97199.81;4184297;28;5760;-69
2022/09/18 10:40:36;;;;;;;;;;;;;;;17.67;43.74;97200.44;4183281;28;6520;-70
2022/09/18 10:42:39;;;;;;;;;;;;;;;17.67;43.84;97191.59;4183234;28;5720;-70
2022/09/18 10:44:48;;;;;;;;;;;;;;;17.67;43.84;97195.09;4195613;28;5114;-70
2022/09/18 10:46:54;;;;;;;;;;;;;;;17.70;43.83;97185.81;4200207;28;5711;-69
2022/09/18 10:48:59;;;;;;;;;;;;;;;17.72;43.86;97197.09;4200294;28;5708;-69
2022/09/18 10:51:04;;;;;;;;;;;;;;;17.74;43.79;97190.47;4200037;28;5683;-68
2022/09/18 10:53:24;;;;;;;;;;;;;;;17.75;43.69;97193.94;4199755;28;5702;-69
2022/09/18 10:55:30;;;;;;;;;;;;;;;17.73;43.86;97193.38;4199549;28;6387;-69
2022/09/18 10:57:35;;;;;;;;;;;;;;;17.73;43.78;97188.03;4198088;28;5687;-68
2022/09/18 10:59:38;;;;;;;;;;;;;;;17.74;43.81;97189.66;4186428;28;5716;-67
2022/09/18 11:01:41;;;;;;;;;;;;;;;17.74;43.92;97185.13;4182916;28;5824;-69
2022/09/18 11:03:48;;;;;;;;;;;;;;;17.72;43.80;97179.19;4183589;28;5720;-68
2022/09/18 11:05:56;;;;;;;;;;;;;;;17.72;43.87;97181.06;4182835;28;5823;-68